Time;durP1;ratioP1;P1;durP2;ratioP2;P2;SDS_P1;SDS_P2;PMS_P1;PMS_P2;Temp;Humidity;BMP_temperature;BMP_pressure;BME280_temperature;BME280_humidity;BME280_pressure;Samples;Min_cycle;Max_cycle;Signal;HPM_P1;HPM_P2
2022/08/13 00:00:39;;;;;;;3.05;2.00;;;;;;;21.52;46.83;99046.47;4502918;31;34351;-79
2022/08/13 00:03:13;;;;;;;3.35;2.40;;;;;;;21.93;46.40;99055.50;4501895;31;34050;-79
2022/08/13 00:06:08;;;;;;;2.85;1.62;;;;;;;21.63;47.06;99061.72;4502045;31;35115;-78
2022/08/13 00:08:56;;;;;;;4.68;2.20;;;;;;;21.77;46.61;99056.44;4496498;31;34554;-79
2022/08/13 00:14:33;;;;;;;2.62;2.10;;;;;;;21.43;48.23;99059.41;4501903;31;34783;-79
2022/08/13 00:17:08;;;;;;;3.10;1.90;;;;;;;21.69;48.14;99045.47;4502642;31;34877;-76
2022/08/13 00:19:40;;;;;;;5.10;2.37;;;;;;;21.12;48.43;99046.16;4486831;32;34478;-78
2022/08/13 00:22:09;;;;;;;3.47;2.15;;;;;;;21.17;48.89;99041.47;4493890;31;33323;-79
2022/08/13 00:25:03;;;;;;;4.68;2.20;;;;;;;21.37;48.23;99032.34;4498223;31;34723;-78
2022/08/13 00:27:37;;;;;;;3.55;2.08;;;;;;;21.31;49.37;99035.34;4501633;31;35058;-79
2022/08/13 00:30:33;;;;;;;3.20;2.05;;;;;;;21.56;48.35;99031.25;4501603;31;34344;-77
2022/08/13 00:33:03;;;;;;;2.60;1.87;;;;;;;21.00;49.92;99029.25;4500036;31;33518;-79
2022/08/13 00:35:35;;;;;;;5.15;3.00;;;;;;;21.11;49.50;99027.75;4488572;31;34736;-78
2022/08/13 00:38:13;;;;;;;3.25;2.10;;;;;;;20.86;50.05;99029.19;4500130;31;34995;-76
2022/08/13 00:40:46;;;;;;;5.45;2.42;;;;;;;20.76;50.78;99023.56;4502483;31;34602;-78
2022/08/13 00:43:25;;;;;;;5.37;2.67;;;;;;;21.09;49.69;99019.03;4501922;31;34236;-79
2022/08/13 00:45:54;;;;;;;4.82;2.55;;;;;;;21.29;49.14;99016.06;4499716;31;34037;-77
2022/08/13 00:51:22;;;;;;;3.30;2.50;;;;;;;21.09;50.18;99024.31;4485778;32;35053;-78
2022/08/13 00:54:14;;;;;;;8.02;2.90;;;;;;;20.73;50.96;99029.03;4481910;32;34359;-78
2022/08/13 00:56:45;;;;;;;5.07;2.75;;;;;;;21.39;49.48;99017.22;4485181;32;34136;-79
2022/08/13 00:59:14;;;;;;;4.07;2.58;;;;;;;20.93;50.61;99016.44;4484117;31;34395;-79
2022/08/13 01:01:45;;;;;;;4.72;2.72;;;;;;;21.16;50.42;99010.66;4501149;31;34483;-78
2022/08/13 01:04:21;;;;;;;4.30;2.70;;;;;;;21.14;50.55;99011.66;4501602;31;33479;-79
2022/08/13 01:06:57;;;;;;;4.03;2.45;;;;;;;20.87;51.66;99015.00;4502520;31;34809;-78
2022/08/13 01:09:29;;;;;;;8.40;3.00;;;;;;;20.99;51.24;99018.72;4488622;31;35044;-79
2022/08/13 01:12:20;;;;;;;4.50;3.03;;;;;;;20.87;51.66;99015.00;4500962;31;35215;-77
2022/08/13 01:14:55;;;;;;;5.40;3.08;;;;;;;21.10;51.81;99015.44;4485485;32;34414;-78
2022/08/13 01:17:24;;;;;;;7.10;3.03;;;;;;;21.11;51.57;99007.41;4485317;31;34085;-76
2022/08/13 01:20:18;;;;;;;6.25;3.50;;;;;;;20.98;52.02;99003.78;4485742;32;35061;-78
2022/08/13 01:23:05;;;;;;;5.07;3.33;;;;;;;21.28;51.67;99008.19;4489491;31;34637;-78
2022/08/13 01:25:36;;;;;;;5.00;3.10;;;;;;;21.00;53.04;99005.41;4498520;31;33338;-79
2022/08/13 01:28:28;;;;;;;6.50;3.35;;;;;;;21.30;52.23;99001.87;4500493;31;33995;-76
2022/08/13 01:31:05;;;;;;;4.12;2.67;;;;;;;21.28;52.54;99002.91;4501083;31;34891;-77
2022/08/13 01:33:46;;;;;;;6.00;3.22;;;;;;;21.35;52.49;99001.59;4500543;31;35263;-78
2022/08/13 01:36:21;;;;;;;6.10;3.65;;;;;;;21.42;51.87;98999.41;4498285;31;33556;-76
2022/08/13 01:39:10;;;;;;;6.43;3.70;;;;;;;21.01;53.21;98996.50;4499664;31;34758;-79
2022/08/13 01:41:48;;;;;;;6.15;3.85;;;;;;;21.45;53.07;98994.78;4501285;31;35983;-79
2022/08/13 01:44:25;;;;;;;5.25;3.42;;;;;;;21.32;53.27;98992.03;4501286;31;35174;-78
2022/08/13 01:52:42;;;;;;;6.57;4.05;;;;;;;21.44;53.40;99000.19;4501500;31;35059;-75
2022/08/13 01:55:12;;;;;;;7.35;4.37;;;;;;;21.44;53.46;98995.72;4486254;32;34338;-79
2022/08/13 01:57:44;;;;;;;7.30;4.75;;;;;;;21.29;53.98;98996.66;4484741;31;33617;-76
2022/08/13 02:00:21;;;;;;;6.00;3.78;;;;;;;21.85;53.00;98994.13;4491362;31;33883;-78
2022/08/13 02:02:55;;;;;;;5.97;3.80;;;;;;;21.49;53.99;98990.19;4498206;31;34927;-79
2022/08/13 02:05:24;;;;;;;7.30;4.37;;;;;;;21.71;52.83;98990.56;4500843;31;34423;-78
2022/08/13 02:08:13;;;;;;;6.62;4.05;;;;;;;22.12;52.35;98994.19;4500300;31;33360;-76
2022/08/13 02:10:47;;;;;;;6.93;4.60;;;;;;;21.85;52.88;98992.34;4497429;31;34054;-76
2022/08/13 02:13:18;;;;;;;6.22;4.18;;;;;;;22.15;52.12;98986.91;4470901;31;34596;-79
2022/08/13 02:15:50;;;;;;;6.80;4.13;;;;;;;21.96;52.66;98992.53;4472814;31;34474;-78
2022/08/13 02:18:21;;;;;;;6.93;4.00;;;;;;;22.03;52.10;98990.34;4487418;31;33625;-79
2022/08/13 02:20:54;;;;;;;7.80;4.60;;;;;;;21.37;54.13;98984.66;4501882;31;33883;-78
2022/08/13 02:23:27;;;;;;;7.32;4.35;;;;;;;21.25;54.36;98980.13;4499360;31;34930;-78
2022/08/13 02:26:16;;;;;;;6.90;3.75;;;;;;;21.69;53.64;98976.56;4501045;31;33988;-79
2022/08/13 02:28:45;;;;;;;7.68;4.10;;;;;;;21.38;54.91;98983.72;4497860;31;33833;-79
2022/08/13 02:31:18;;;;;;;7.12;4.30;;;;;;;21.84;53.51;98985.34;4499313;31;33825;-79
2022/08/13 02:34:06;;;;;;;7.00;4.15;;;;;;;21.98;53.03;98979.16;4473452;32;34215;-79
2022/08/13 02:36:41;;;;;;;8.38;4.68;;;;;;;22.00;52.92;98979.06;4485000;32;34517;-76
2022/08/13 02:39:14;;;;;;;7.10;4.15;;;;;;;22.01;52.56;98978.97;4492982;31;33587;-78
2022/08/13 02:41:43;;;;;;;9.68;4.65;;;;;;;21.79;52.56;98982.13;4501535;31;33919;-78
2022/08/13 02:44:20;;;;;;;7.47;4.28;;;;;;;21.84;52.76;98981.84;4500127;31;35106;-79
2022/08/13 02:47:04;;;;;;;7.62;4.30;;;;;;;21.81;52.57;98980.22;4499172;31;34998;-76
2022/08/13 02:49:36;;;;;;;7.03;4.40;;;;;;;21.93;52.29;98984.75;4500696;31;33434;-76
2022/08/13 02:52:14;;;;;;;6.85;4.30;;;;;;;21.71;52.64;98977.31;4500524;31;33824;-78
2022/08/13 02:54:44;;;;;;;7.93;4.80;;;;;;;22.09;51.75;98973.19;4486877;31;34674;-78
2022/08/13 02:57:23;;;;;;;7.05;4.53;;;;;;;21.86;52.08;98978.13;4500267;31;34443;-77
2022/08/13 02:59:55;;;;;;;8.57;4.90;;;;;;;22.18;51.14;98971.72;4498795;31;33416;-76
2022/08/13 03:02:37;;;;;;;8.25;4.90;;;;;;;22.25;50.97;98965.09;4500748;31;33806;-79
2022/08/13 03:05:09;;;;;;;8.48;4.85;;;;;;;22.53;50.31;98961.50;4498874;31;35854;-76
2022/08/13 03:07:42;;;;;;;6.40;4.37;;;;;;;22.27;50.92;98972.03;4501408;31;35141;-79
2022/08/13 03:10:22;;;;;;;10.60;5.10;;;;;;;22.48;50.83;98972.44;4499786;31;33934;-79
2022/08/13 03:13:21;;;;;;;7.72;4.32;;;;;;;22.46;50.85;98971.66;4498894;31;33988;-76
2022/08/13 03:15:55;;;;;;;8.82;4.72;;;;;;;22.29;51.20;98970.13;4493928;31;34782;-76
2022/08/13 03:18:30;;;;;;;7.32;4.55;;;;;;;22.43;50.87;98963.94;4499589;31;35221;-79
2022/08/13 03:21:20;;;;;;;7.03;4.60;;;;;;;22.63;50.47;98967.06;4501237;31;33393;-79
2022/08/13 03:24:10;;;;;;;14.50;5.12;;;;;;;22.55;50.72;98961.41;4498606;31;33963;-79
2022/08/13 03:26:38;;;;;;;7.00;4.47;;;;;;;22.52;50.44;98955.34;4500002;31;35150;-80
2022/08/13 03:29:07;;;;;;;7.68;4.85;;;;;;;22.23;51.42;98959.03;4500184;31;34389;-79
2022/08/13 03:31:35;;;;;;;7.78;4.78;;;;;;;22.34;51.26;98959.19;4500000;31;33608;-76
2022/08/13 03:34:22;;;;;;;7.97;4.28;;;;;;;22.29;51.31;98962.19;4493110;31;34313;-76
2022/08/13 03:36:53;;;;;;;8.10;4.78;;;;;;;22.79;49.92;98954.47;4483951;32;35313;-79
2022/08/13 03:39:25;;;;;;;8.80;4.40;;;;;;;22.13;51.77;98954.34;4493913;31;34580;-79
2022/08/13 03:41:54;;;;;;;10.80;4.75;;;;;;;21.95;52.47;98956.37;4500787;31;33614;-79
2022/08/13 03:44:28;;;;;;;7.05;4.60;;;;;;;22.17;51.83;98959.44;4486322;31;34828;-79
2022/08/13 03:47:04;;;;;;;10.18;5.20;;;;;;;21.95;52.44;98955.50;4500881;31;35025;-76
2022/08/13 03:49:52;;;;;;;6.95;4.78;;;;;;;21.81;53.08;98952.88;4498498;31;34560;-76
2022/08/13 03:52:20;;;;;;;9.95;4.97;;;;;;;22.33;51.56;98944.25;4482857;32;33468;-79
2022/08/13 03:55:01;;;;;;;9.05;4.65;;;;;;;22.25;52.36;98954.47;4495411;31;34830;-79
2022/08/13 03:57:30;;;;;;;9.70;4.93;;;;;;;22.05;52.23;98953.97;4499447;31;35026;-79
2022/08/13 04:00:18;;;;;;;8.90;5.28;;;;;;;21.96;52.35;98947.44;4498631;31;34961;-79
2022/08/13 04:02:46;;;;;;;7.32;4.37;;;;;;;22.20;52.15;98949.50;4500649;31;33732;-79
2022/08/13 04:05:17;;;;;;;8.45;5.25;;;;;;;21.77;52.93;98952.22;4500046;31;34760;-79
2022/08/13 04:08:05;;;;;;;8.80;4.87;;;;;;;22.07;52.13;98949.41;4500323;31;35027;-76
2022/08/13 04:10:42;;;;;;;8.55;5.30;;;;;;;21.94;52.43;98959.13;4486307;31;35195;-77
2022/08/13 04:13:22;;;;;;;8.43;5.18;;;;;;;21.64;53.48;98951.31;4484564;31;33338;-77
2022/08/13 04:16:15;;;;;;;9.65;5.00;;;;;;;21.18;54.78;98949.66;4499599;31;33842;-79
2022/08/13 04:18:45;;;;;;;9.52;5.10;;;;;;;21.53;54.29;98949.31;4497758;31;35081;-76
2022/08/13 04:21:15;;;;;;;8.07;4.60;;;;;;;21.31;55.09;98949.75;4497892;31;35294;-76
2022/08/13 04:23:50;;;;;;;8.27;5.25;;;;;;;21.53;54.83;98950.19;4499555;31;33422;-76
2022/08/13 04:26:24;;;;;;;9.52;5.10;;;;;;;21.04;56.96;98939.06;4497907;31;34740;-79
2022/08/13 04:29:05;;;;;;;7.45;4.85;;;;;;;21.91;54.40;98943.41;4499810;31;35911;-80
2022/08/13 04:31:36;;;;;;;9.45;5.65;;;;;;;22.31;52.95;98940.84;4500234;31;35216;-79
2022/08/13 04:34:19;;;;;;;8.75;5.47;;;;;;;21.51;55.60;98945.91;4499389;31;33349;-78
2022/08/13 04:37:10;;;;;;;8.63;5.10;;;;;;;21.19;57.03;98935.47;4501221;31;33827;-76
2022/08/13 04:39:50;;;;;;;14.70;5.82;;;;;;;20.99;57.73;98942.81;4500030;31;35216;-78
2022/08/13 04:42:48;;;;;;;6.95;4.55;;;;;;;21.91;54.68;98946.88;4500172;31;34571;-79
2022/08/13 04:45:18;;;;;;;9.02;5.30;;;;;;;22.21;53.71;98945.03;4500061;31;34131;-79
2022/08/13 04:47:53;;;;;;;8.63;4.93;;;;;;;22.37;53.54;98934.28;4502486;31;33809;-78
2022/08/13 04:50:23;;;;;;;11.52;4.65;;;;;;;21.92;55.22;98938.00;4500016;31;34282;-79
2022/08/13 04:52:56;;;;;;;7.60;4.30;;;;;;;22.17;54.78;98932.94;4501915;31;35231;-76
2022/08/13 04:55:27;;;;;;;8.45;4.93;;;;;;;22.01;55.67;98936.56;4485734;31;33773;-78
2022/08/13 04:58:15;;;;;;;9.00;4.97;;;;;;;21.85;56.64;98943.78;4471224;32;34024;-79
2022/08/13 05:00:45;;;;;;;9.07;4.10;;;;;;;22.12;56.21;98942.00;4469057;32;34865;-79
2022/08/13 05:03:20;;;;;;;12.57;5.62;;;;;;;22.28;56.01;98935.75;4470286;32;35179;-80
2022/08/13 05:06:00;;;;;;;12.55;4.57;;;;;;;21.77;58.11;98941.63;4454342;32;33507;-79
2022/08/13 05:08:31;;;;;;;10.45;5.57;;;;;;;22.66;55.12;98945.59;4455165;32;34004;-76
2022/08/13 05:11:00;;;;;;;8.38;4.57;;;;;;;22.65;54.43;98946.56;4460575;32;34918;-79
2022/08/13 05:13:31;;;;;;;7.85;4.53;;;;;;;22.61;54.45;98950.41;4453948;32;34924;-76
2022/08/13 05:16:13;;;;;;;7.90;4.53;;;;;;;22.82;53.46;98946.28;4457594;32;33808;-79
2022/08/13 05:18:44;;;;;;;9.52;4.87;;;;;;;23.03;52.86;98943.97;4469104;32;33753;-80
2022/08/13 05:21:14;;;;;;;8.70;5.15;;;;;;;23.21;51.71;98947.22;4470759;32;35961;-76
2022/08/13 05:23:50;;;;;;;8.80;5.03;;;;;;;23.69;50.97;98940.38;4469325;32;34431;-80
2022/08/13 05:26:38;;;;;;;7.15;4.45;;;;;;;23.97;50.07;98944.56;4469849;32;33540;-76
2022/08/13 05:29:26;;;;;;;9.68;5.25;;;;;;;24.62;48.98;98940.69;4469019;32;33857;-80
2022/08/13 05:31:53;;;;;;;7.10;4.82;;;;;;;24.94;47.89;98943.56;4469517;32;35034;-77
2022/08/13 05:34:26;;;;;;;9.75;5.30;;;;;;;24.92;47.93;98950.84;4469153;32;35451;-79
2022/08/13 05:36:55;;;;;;;7.35;4.55;;;;;;;25.75;46.27;98940.87;4469477;32;33551;-76
2022/08/13 05:39:44;;;;;;;8.75;5.25;;;;;;;25.83;45.40;98948.25;4457937;32;33071;-78
2022/08/13 05:42:18;;;;;;;6.68;4.57;;;;;;;26.22;44.28;98949.53;4467606;32;34625;-80
2022/08/13 05:44:56;;;;;;;9.18;4.75;;;;;;;25.32;47.08;98950.44;4469929;32;34483;-77
2022/08/13 05:47:28;;;;;;;7.10;4.15;;;;;;;26.46;43.84;98940.47;4469420;32;32757;-80
2022/08/13 05:50:13;;;;;;;7.85;4.95;;;;;;;26.15;44.63;98936.81;4468766;32;33893;-79
2022/08/13 05:52:44;;;;;;;8.25;4.65;;;;;;;26.49;43.37;98932.22;4469520;32;35012;-76
2022/08/13 05:55:16;;;;;;;6.95;4.80;;;;;;;25.95;45.12;98941.13;4454090;32;34377;-77
2022/08/13 05:58:09;;;;;;;8.63;5.05;;;;;;;25.46;46.12;98941.34;4483870;31;231720;-76
2022/08/13 06:03:43;;;;;;;7.25;4.37;;;;;;;26.75;43.63;98955.91;4501240;31;35734;-80
2022/08/13 06:06:32;;;;;;;8.52;5.32;;;;;;;26.49;43.25;98937.56;4499425;31;34640;-76
2022/08/13 06:09:04;;;;;;;8.15;5.05;;;;;;;26.88;41.75;98945.91;4496410;31;33459;-77
2022/08/13 06:11:38;;;;;;;18.15;5.75;;;;;;;27.19;40.66;98943.25;4500806;31;34250;-76
2022/08/13 06:14:27;;;;;;;7.40;4.68;;;;;;;27.51;40.86;98942.31;4498977;31;35513;-79
2022/08/13 06:17:02;;;;;;;6.60;3.95;;;;;;;27.97;39.21;98941.81;4502190;31;35176;-80
2022/08/13 06:19:32;;;;;;;6.57;4.15;;;;;;;27.81;38.60;98933.41;4490028;31;33498;-80
2022/08/13 06:22:02;;;;;;;7.50;5.00;;;;;;;27.51;39.82;98937.81;4485904;32;34849;-80
2022/08/13 06:24:32;;;;;;;7.90;4.72;;;;;;;27.65;39.90;98949.13;4495421;31;35257;-80
2022/08/13 06:27:04;;;;;;;11.65;4.37;;;;;;;27.89;38.84;98943.44;4499179;31;34490;-76
2022/08/13 06:29:43;;;;;;;8.63;5.00;;;;;;;28.57;37.25;98956.13;4495791;31;33589;-76
2022/08/13 06:32:20;;;;;;;7.37;4.60;;;;;;;28.41;37.35;98972.72;4501823;31;33348;-80
2022/08/13 06:35:08;;;;;;;8.65;4.50;;;;;;;27.73;39.06;98982.25;4499409;31;35202;-80
2022/08/13 06:37:41;;;;;;;9.07;4.85;;;;;;;27.82;39.02;98991.31;4500514;31;34457;-80
2022/08/13 06:40:22;;;;;;;7.45;4.47;;;;;;;27.68;39.23;98987.16;4500949;31;34436;-80
2022/08/13 06:43:00;;;;;;;7.60;4.70;;;;;;;27.98;39.83;98982.81;4499438;31;33971;-79
2022/08/13 06:45:29;;;;;;;7.68;4.45;;;;;;;28.03;38.38;98977.88;4500781;31;35465;-80
2022/08/13 06:48:02;;;;;;;9.88;4.80;;;;;;;28.09;38.49;98969.28;4500704;31;34449;-80
2022/08/13 06:50:35;;;;;;;7.30;4.90;;;;;;;28.05;38.74;98967.03;4500192;31;32173;-81
2022/08/13 06:53:14;;;;;;;8.02;4.53;;;;;;;28.32;38.06;98966.38;4500875;31;33901;-77
2022/08/13 06:56:04;;;;;;;6.82;4.87;;;;;;;29.00;36.83;98970.94;4500371;31;34967;-80
2022/08/13 06:58:53;;;;;;;6.72;4.37;;;;;;;29.24;35.94;98975.84;4497554;31;35110;-80
2022/08/13 07:01:27;;;;;;;7.53;4.78;;;;;;;27.72;39.28;98983.22;4499040;31;33593;-80
2022/08/13 07:04:19;;;;;;;8.70;5.40;;;;;;;28.17;38.66;98977.50;4500682;31;34178;-77
2022/08/13 07:06:58;;;;;;;8.15;4.20;;;;;;;27.53;40.58;98967.09;4501710;31;35141;-77
2022/08/13 07:09:27;;;;;;;7.95;5.00;;;;;;;28.46;38.05;98968.66;4499073;31;34316;-80
2022/08/13 07:12:12;;;;;;;7.60;5.22;;;;;;;28.92;37.65;98959.09;4501488;31;33325;-79
2022/08/13 07:14:43;;;;;;;7.45;4.60;;;;;;;28.48;38.43;98963.16;4486247;31;34652;-80
2022/08/13 07:17:27;;;;;;;7.87;5.00;;;;;;;29.52;35.91;98967.84;4500408;31;35052;-78
2022/08/13 07:20:02;;;;;;;7.80;4.70;;;;;;;29.33;36.46;98968.75;4500369;31;35342;-81
2022/08/13 07:22:34;;;;;;;7.03;4.57;;;;;;;29.44;37.21;98969.44;4501275;31;34245;-81
2022/08/13 07:25:25;;;;;;;7.97;4.97;;;;;;;29.67;37.20;98969.91;4497513;31;34155;-80
2022/08/13 07:28:15;;;;;;;10.25;4.47;;;;;;;29.96;35.44;98965.44;4501320;31;36541;-78
2022/08/13 07:31:05;;;;;;;7.57;4.75;;;;;;;29.04;38.44;98959.75;4498826;31;34271;-77
2022/08/13 07:33:42;;;;;;;6.62;4.18;;;;;;;29.43;36.03;98965.06;4499678;31;33722;-80
2022/08/13 07:36:27;;;;;;;8.25;5.30;;;;;;;29.83;35.54;98965.78;4500108;31;33966;-77
2022/08/13 07:38:57;;;;;;;7.07;4.80;;;;;;;28.98;36.78;98964.84;4499821;31;35800;-80
2022/08/13 07:41:27;;;;;;;7.32;5.03;;;;;;;28.86;37.92;98966.84;4500486;31;34588;-79
2022/08/13 07:43:59;;;;;;;6.85;4.43;;;;;;;29.30;36.73;98968.06;4483158;31;34174;-81
2022/08/13 07:46:42;;;;;;;7.62;5.18;;;;;;;30.55;34.09;98960.53;4484084;32;34814;-79
2022/08/13 07:49:19;;;;;;;6.78;4.55;;;;;;;31.38;33.69;98957.50;4493640;31;36017;-77
2022/08/13 07:51:48;;;;;;;6.07;4.60;;;;;;;30.06;35.53;98960.84;4483949;32;34445;-79
2022/08/13 07:54:19;;;;;;;8.18;5.50;;;;;;;29.73;35.89;98960.41;4483647;31;33395;-77
2022/08/13 07:56:51;;;;;;;7.35;4.97;;;;;;;29.90;37.79;98955.31;4484816;32;33935;-80
2022/08/13 07:59:22;;;;;;;9.68;5.30;;;;;;;31.60;34.43;98949.91;4490689;31;35981;-78
2022/08/13 08:01:55;;;;;;;7.90;5.45;;;;;;;31.05;33.55;98956.44;4500722;31;34314;-77
2022/08/13 08:04:44;;;;;;;11.57;5.10;;;;;;;30.54;34.36;98958.84;4499804;31;34267;-81
2022/08/13 08:07:17;;;;;;;7.32;5.25;;;;;;;30.92;34.79;98957.69;4499540;31;34451;-79
2022/08/13 08:09:46;;;;;;;8.75;5.15;;;;;;;30.57;34.24;98958.53;4496615;31;34938;-77
2022/08/13 08:15:13;;;;;;;8.38;4.32;;;;;;;31.08;33.97;98959.66;4501999;31;33512;-78
2022/08/13 08:17:50;;;;;;;8.25;4.93;;;;;;;30.68;34.82;98949.41;4489564;31;34566;-80
2022/08/13 08:20:41;;;;;;;8.63;5.68;;;;;;;30.76;34.79;98946.75;4499787;31;34974;-81
2022/08/13 08:23:26;;;;;;;8.20;5.18;;;;;;;29.82;36.15;98947.97;4502326;31;34483;-77
2022/08/13 08:26:14;;;;;;;7.28;4.72;;;;;;;31.04;33.69;98944.81;4485917;32;34335;-79
2022/08/13 08:28:46;;;;;;;7.85;4.72;;;;;;;31.67;32.00;98938.31;4494721;31;33913;-80
2022/08/13 08:31:18;;;;;;;12.55;5.15;;;;;;;30.43;34.49;98939.28;4502567;31;35042;-80
2022/08/13 08:33:56;;;;;;;7.20;4.95;;;;;;;29.94;35.11;98951.31;4501876;31;34444;-80
2022/08/13 08:36:25;;;;;;;11.88;5.80;;;;;;;31.21;34.32;98944.94;4502895;31;34369;-77
2022/08/13 08:45:01;;;;;;;10.48;5.35;;;;;;;30.93;32.95;98937.03;4500216;31;34590;-77
2022/08/13 08:47:41;;;;;;;10.00;5.30;;;;;;;30.28;35.27;98935.38;4501615;31;34322;-80
2022/08/13 08:50:16;;;;;;;;;;;;;;;30.06;36.05;98924.09;4500728;31;33827;-78
2022/08/13 08:56:04;;;;;;;10.30;5.35;;;;;;;31.42;32.65;98921.19;4502002;31;34306;-77
2022/08/13 08:58:40;;;;;;;9.10;5.12;;;;;;;30.34;34.95;98925.91;4502054;31;34276;-77
2022/08/13 09:01:13;;;;;;;10.43;5.27;;;;;;;30.28;34.86;98930.00;4485511;32;34793;-81
2022/08/13 09:03:42;;;;;;;8.02;5.03;;;;;;;30.26;36.34;98932.00;4485264;31;35996;-77
2022/08/13 09:06:26;;;;;;;7.45;5.03;;;;;;;29.98;36.17;98934.72;4497296;31;34546;-81
2022/08/13 09:09:16;;;;;;;9.07;5.32;;;;;;;29.82;36.09;98931.88;4488062;31;33450;-76
2022/08/13 09:11:52;;;;;;;8.95;5.62;;;;;;;28.87;37.83;98929.19;4497933;31;33790;-80
2022/08/13 09:14:27;;;;;;;8.38;5.53;;;;;;;30.07;36.37;98924.94;4487804;31;35042;-80
2022/08/13 09:17:02;;;;;;;7.55;5.03;;;;;;;29.95;35.46;98920.78;4502245;31;35100;-80
2022/08/13 09:19:31;;;;;;;8.02;5.32;;;;;;;30.77;34.10;98922.41;4499807;31;33594;-79
2022/08/13 09:22:22;;;;;;;7.45;5.15;;;;;;;29.73;36.00;98912.09;4501910;31;33996;-78
2022/08/13 09:24:56;;;;;;;6.87;4.60;;;;;;;30.33;34.28;98914.28;4501236;31;35145;-79
2022/08/13 09:27:30;;;;;;;12.07;5.55;;;;;;;29.83;36.08;98912.09;4501133;31;34246;-77
2022/08/13 09:30:19;;;;;;;8.32;5.60;;;;;;;30.55;36.18;98909.47;4498289;31;33258;-77
2022/08/13 09:32:54;;;;;;;11.57;5.60;;;;;;;30.91;34.42;98909.41;4499871;31;34179;-81
2022/08/13 09:35:26;;;;;;;8.15;5.12;;;;;;;30.74;35.14;98909.31;4501128;31;35008;-78
2022/08/13 09:38:06;;;;;;;8.00;5.57;;;;;;;30.93;34.44;98902.06;4501138;31;34553;-78
2022/08/13 09:40:46;;;;;;;6.90;4.93;;;;;;;31.37;34.01;98896.59;4484338;31;33704;-81
2022/08/13 09:43:30;;;;;;;8.10;5.47;;;;;;;32.11;33.89;98894.22;4485242;32;33943;-78
2022/08/13 09:46:17;;;;;;;7.90;4.93;;;;;;;32.92;31.35;98895.25;4494536;31;35044;-78
2022/08/13 09:48:51;;;;;;;7.37;5.00;;;;;;;32.58;32.37;98890.88;4486268;32;34457;-79
2022/08/13 09:51:22;;;;;;;7.40;5.10;;;;;;;32.92;30.44;98886.34;4497834;31;32819;-80
2022/08/13 09:54:10;;;;;;;7.37;4.45;;;;;;;33.43;30.30;98895.00;4485678;31;34593;-81
2022/08/13 09:56:39;;;;;;;6.62;4.80;;;;;;;33.29;30.35;98885.75;4501994;31;34569;-81
2022/08/13 09:59:10;;;;;;;6.60;4.55;;;;;;;34.10;28.22;98881.00;4498734;31;34588;-77
2022/08/13 10:01:57;;;;;;;6.68;4.53;;;;;;;33.27;28.89;98884.22;4501102;31;33541;-78
2022/08/13 10:04:29;;;;;;;8.75;4.90;;;;;;;34.15;28.78;98886.69;4498747;31;33935;-79
2022/08/13 10:07:00;;;;;;;7.32;4.62;;;;;;;34.15;27.92;98880.44;4486184;32;35115;-81
2022/08/13 10:09:39;;;;;;;6.72;4.65;;;;;;;33.55;29.53;98885.50;4489274;31;34981;-81
2022/08/13 10:12:26;;;;;;;7.22;4.90;;;;;;;34.45;27.48;98888.69;4501854;31;33738;-79
2022/08/13 10:14:56;;;;;;;8.18;4.43;;;;;;;34.45;27.23;98888.69;4498609;31;33935;-80
2022/08/13 10:17:26;;;;;;;7.05;4.78;;;;;;;32.54;29.32;98884.12;4501830;31;35028;-78
2022/08/13 10:20:19;;;;;;;5.90;4.30;;;;;;;32.92;29.73;98876.38;4500866;31;34535;-79
2022/08/13 10:22:47;;;;;;;6.57;4.70;;;;;;;32.27;30.75;98875.38;4501930;31;33321;-79
2022/08/13 10:25:17;;;;;;;7.28;4.80;;;;;;;31.92;32.07;98880.00;4500699;31;33930;-80
2022/08/13 10:27:46;;;;;;;6.57;4.37;;;;;;;31.61;32.26;98877.06;4499455;31;34650;-77
2022/08/13 10:30:18;;;;;;;7.65;5.00;;;;;;;32.82;29.93;98870.31;4497912;31;34496;-77
2022/08/13 10:33:08;;;;;;;6.65;4.25;;;;;;;32.35;30.51;98868.28;4500298;31;33278;-80
2022/08/13 10:35:37;;;;;;;8.18;4.87;;;;;;;33.53;28.86;98878.56;4500901;31;33054;-79
2022/08/13 10:38:17;;;;;;;6.95;4.90;;;;;;;33.09;29.39;98871.81;4500733;31;34944;-81
2022/08/13 10:40:47;;;;;;;6.82;4.75;;;;;;;33.23;29.67;98870.25;4499248;31;35194;-80
2022/08/13 10:43:21;;;;;;;7.45;4.80;;;;;;;32.68;29.53;98869.16;4499370;31;33345;-80
2022/08/13 10:45:57;;;;;;;7.05;5.10;;;;;;;33.26;28.25;98869.91;4500945;31;33896;-80
2022/08/13 10:48:39;;;;;;;6.07;4.35;;;;;;;31.61;31.09;98866.31;4501613;31;35937;-77
2022/08/13 10:51:07;;;;;;;5.87;4.47;;;;;;;32.40;30.28;98866.81;4500498;31;35184;-80
2022/08/13 10:53:55;;;;;;;9.95;4.50;;;;;;;32.52;29.15;98864.59;4501552;31;33498;-79
2022/08/13 10:56:30;;;;;;;7.47;4.57;;;;;;;32.25;30.19;98865.78;4499513;31;34833;-80
2022/08/13 10:59:00;;;;;;;6.45;4.28;;;;;;;32.08;30.02;98864.91;4500463;31;35071;-80
2022/08/13 11:01:30;;;;;;;6.00;4.20;;;;;;;33.58;27.46;98857.28;4500721;31;33791;-80
2022/08/13 11:04:02;;;;;;;7.07;4.45;;;;;;;33.34;27.65;98859.09;4501487;31;33638;-79
2022/08/13 11:06:34;;;;;;;10.52;4.75;;;;;;;32.89;28.45;98863.22;4499054;31;33772;-80
2022/08/13 11:09:05;;;;;;;7.93;4.12;;;;;;;33.14;28.20;98863.22;4500226;31;35912;-77
2022/08/13 11:11:55;;;;;;;6.20;4.25;;;;;;;33.46;27.11;98856.00;4485711;32;33581;-81
2022/08/13 11:14:29;;;;;;;6.00;4.00;;;;;;;32.32;28.60;98853.31;4490665;31;34216;-77
2022/08/13 11:17:04;;;;;;;5.72;4.00;;;;;;;32.88;27.89;98850.78;4485899;31;33827;-80
2022/08/13 11:19:52;;;;;;;6.78;4.25;;;;;;;32.27;28.60;98844.91;4499633;31;35909;-80
2022/08/13 11:22:23;;;;;;;6.55;4.12;;;;;;;32.96;28.01;98841.81;4501512;31;35091;-81
2022/08/13 11:25:03;;;;;;;7.80;4.20;;;;;;;32.30;29.10;98849.97;4499201;31;34332;-81
2022/08/13 11:27:52;;;;;;;8.27;4.50;;;;;;;31.43;30.33;98836.78;4500533;31;34017;-81
2022/08/13 11:30:20;;;;;;;5.90;3.87;;;;;;;31.70;29.59;98838.41;4497493;31;34902;-80
2022/08/13 11:33:05;;;;;;;6.93;3.95;;;;;;;32.23;29.02;98836.31;4500317;31;35226;-79
2022/08/13 11:35:41;;;;;;;5.65;3.67;;;;;;;32.23;28.59;98838.16;4500237;31;33566;-80
2022/08/13 11:38:18;;;;;;;5.87;3.90;;;;;;;31.40;29.50;98831.72;4501070;31;33925;-78
2022/08/13 11:40:49;;;;;;;5.43;3.97;;;;;;;31.72;29.35;98840.94;4500048;31;35351;-79
2022/08/13 11:43:29;;;;;;;6.62;3.45;;;;;;;31.37;29.75;98840.09;4500170;31;35190;-81
2022/08/13 11:46:19;;;;;;;5.10;3.65;;;;;;;31.97;29.35;98830.19;4500693;31;33512;-80
2022/08/13 11:48:49;;;;;;;6.05;4.72;;;;;;;32.07;27.92;98828.22;4500256;31;34716;-81
2022/08/13 11:51:36;;;;;;;4.97;3.25;;;;;;;32.41;28.06;98838.00;4486914;31;35044;-77
2022/08/13 11:54:20;;;;;;;5.12;3.35;;;;;;;32.24;28.69;98835.28;4485994;32;34436;-77
2022/08/13 11:57:04;;;;;;;5.30;4.00;;;;;;;32.71;27.75;98822.16;4488008;31;33749;-79
2022/08/13 11:59:40;;;;;;;4.93;3.20;;;;;;;32.79;26.83;98822.13;4502865;31;33928;-80
2022/08/13 12:02:17;;;;;;;5.35;3.30;;;;;;;33.39;25.51;98823.47;4500266;31;35749;-77
2022/08/13 12:04:56;;;;;;;5.10;3.33;;;;;;;32.85;26.91;98821.44;4501789;31;35211;-79
2022/08/13 12:07:25;;;;;;;6.32;3.95;;;;;;;32.82;26.33;98827.19;4501117;31;33531;-80
2022/08/13 12:09:54;;;;;;;5.47;3.78;;;;;;;33.23;27.00;98824.38;4501532;31;33970;-80
2022/08/13 12:12:26;;;;;;;9.38;3.70;;;;;;;33.41;26.35;98822.28;4501831;31;34892;-80
2022/08/13 12:14:58;;;;;;;4.28;3.33;;;;;;;34.19;25.03;98819.66;4501697;31;34431;-77
2022/08/13 12:17:27;;;;;;;5.60;3.40;;;;;;;33.66;25.52;98819.50;4502110;31;34320;-77
2022/08/13 12:20:18;;;;;;;6.78;2.95;;;;;;;33.40;26.85;98817.06;4501815;31;33781;-80
2022/08/13 12:22:50;;;;;;;5.72;3.55;;;;;;;33.74;25.35;98815.88;4500082;31;35823;-77
2022/08/13 12:25:21;;;;;;;6.97;3.53;;;;;;;33.20;26.54;98809.41;4501589;31;35093;-77
2022/08/13 12:28:13;;;;;;;8.10;3.55;;;;;;;33.02;27.37;98800.66;4501877;31;33540;-80
2022/08/13 12:30:59;;;;;;;5.60;3.72;;;;;;;32.34;27.31;98804.66;4500648;31;34121;-80
2022/08/13 12:33:34;;;;;;;7.95;3.95;;;;;;;32.47;27.83;98802.28;4502021;31;35951;-80
2022/08/13 12:36:08;;;;;;;;;;;;;;;32.04;28.50;98802.47;4502937;31;34671;-80
2022/08/13 12:38:36;;;;;;;5.30;3.50;;;;;;;31.98;28.58;98791.47;4501733;31;33552;-78
2022/08/13 12:41:04;;;;;;;6.10;3.45;;;;;;;32.19;27.75;98793.69;4501579;31;33888;-77
2022/08/13 12:43:46;;;;;;;5.12;3.47;;;;;;;32.25;27.50;98799.25;4501731;31;35026;-80
2022/08/13 12:46:34;;;;;;;5.60;3.85;;;;;;;32.14;27.18;98788.84;4501557;31;35083;-80